createdAt,value
2023-02-01T00:00:41.616Z,100716.00
2023-02-01T00:03:15.776Z,100716.00
2023-02-01T00:05:48.473Z,100722.00
2023-02-01T00:08:21.803Z,100722.00
2023-02-01T00:10:55.783Z,100721.00
2023-02-01T00:13:48.597Z,100721.00
2023-02-01T00:16:23.675Z,100717.00
2023-02-01T00:18:58.683Z,100721.00
2023-02-01T00:21:34.358Z,100720.00
2023-02-01T00:24:08.533Z,100726.00
2023-02-01T00:26:46.016Z,100720.00
2023-02-01T00:29:20.737Z,100720.00
2023-02-01T00:31:59.288Z,100719.00
2023-02-01T00:34:32.151Z,100714.00
2023-02-01T00:37:05.195Z,100714.00
2023-02-01T00:39:38.272Z,100710.00
2023-02-01T00:42:11.119Z,100711.00
2023-02-01T00:44:43.898Z,100705.00
2023-02-01T00:47:16.950Z,100705.00
2023-02-01T00:49:52.372Z,100707.00
2023-02-01T00:52:25.282Z,100705.00
2023-02-01T00:54:58.681Z,100698.00
2023-02-01T00:57:34.056Z,100691.00
2023-02-01T01:00:06.447Z,100693.00
2023-02-01T01:02:39.288Z,100692.00
2023-02-01T01:05:12.551Z,100688.00
2023-02-01T01:07:45.444Z,100684.00
2023-02-01T01:10:18.547Z,100690.00
2023-02-01T01:12:51.335Z,100682.00
2023-02-01T01:15:24.222Z,100669.00
2023-02-01T01:17:57.073Z,100678.00
2023-02-01T01:20:29.987Z,100676.00
2023-02-01T01:23:02.966Z,100674.00
2023-02-01T01:25:35.746Z,100688.00
2023-02-01T01:28:09.100Z,100685.00
2023-02-01T01:30:41.869Z,100682.00
2023-02-01T01:33:17.130Z,100681.00
2023-02-01T01:35:50.824Z,100683.00
2023-02-01T01:38:23.715Z,100694.00
2023-02-01T01:40:56.664Z,100691.00
2023-02-01T01:43:29.697Z,100688.00
2023-02-01T01:46:17.489Z,100689.00
2023-02-01T01:48:44.340Z,100687.00
2023-02-01T01:51:18.434Z,100702.00
2023-02-01T01:53:56.033Z,100689.00
2023-02-01T01:56:30.275Z,100692.00
2023-02-01T01:59:04.192Z,100694.00
2023-02-01T02:01:37.155Z,100690.00
2023-02-01T02:04:10.329Z,100687.00
2023-02-01T02:06:44.925Z,100692.00
2023-02-01T02:09:18.368Z,100691.00
2023-02-01T02:11:51.193Z,100691.00
2023-02-01T02:14:25.687Z,100687.00
2023-02-01T02:17:33.597Z,100682.00
2023-02-01T02:20:41.572Z,100683.00
2023-02-01T02:23:23.191Z,100679.00
2023-02-01T02:26:13.033Z,100682.00
2023-02-01T02:29:17.754Z,100677.00
2023-02-01T02:32:10.147Z,100683.00
2023-02-01T02:34:53.698Z,100683.00
2023-02-01T02:37:37.380Z,100692.00
2023-02-01T02:40:18.397Z,100682.00
2023-02-01T02:43:26.657Z,100689.00
2023-02-01T02:46:24.152Z,100688.00
2023-02-01T02:49:16.596Z,100687.00
2023-02-01T02:52:11.851Z,100697.00
2023-02-01T02:54:53.863Z,100688.00
2023-02-01T02:57:52.069Z,100696.00
2023-02-01T03:00:47.406Z,100680.00
2023-02-01T03:03:37.934Z,100684.00
2023-02-01T03:06:12.694Z,100671.00
2023-02-01T03:08:46.743Z,100670.00
2023-02-01T03:11:20.224Z,100668.00
2023-02-01T03:14:00.914Z,100664.00
2023-02-01T03:16:47.187Z,100670.00
2023-02-01T03:19:24.976Z,100677.00
2023-02-01T03:24:48.010Z,100663.00
2023-02-01T03:27:31.454Z,100674.00
2023-02-01T03:30:24.738Z,100668.00
2023-02-01T03:33:05.875Z,100670.00
2023-02-01T03:35:59.837Z,100663.00
2023-02-01T03:38:37.146Z,100668.00
2023-02-01T03:41:14.775Z,100668.00
2023-02-01T03:44:07.434Z,100669.00
2023-02-01T03:46:43.443Z,100668.00
2023-02-01T03:49:18.090Z,100663.00
2023-02-01T03:51:51.690Z,100665.00
2023-02-01T03:54:25.276Z,100665.00
2023-02-01T03:57:00.464Z,100662.00
2023-02-01T03:59:33.611Z,100659.00
2023-02-01T04:02:06.485Z,100657.00
2023-02-01T04:04:39.630Z,100653.00
2023-02-01T04:07:12.533Z,100659.00
2023-02-01T04:09:45.644Z,100655.00
2023-02-01T04:12:18.466Z,100656.00
2023-02-01T04:14:51.313Z,100655.00
2023-02-01T04:17:24.287Z,100650.00
2023-02-01T04:19:57.234Z,100656.00
2023-02-01T04:22:29.950Z,100653.00
2023-02-01T04:25:03.216Z,100651.00
2023-02-01T04:27:36.078Z,100655.00
2023-02-01T04:30:11.407Z,100662.00
2023-02-01T04:32:44.513Z,100659.00
2023-02-01T04:35:17.464Z,100664.00
2023-02-01T04:37:50.493Z,100665.00
2023-02-01T04:40:23.776Z,100666.00
2023-02-01T04:42:57.105Z,100666.00
2023-02-01T04:45:30.000Z,100675.00
2023-02-01T04:48:07.038Z,100669.00
2023-02-01T04:50:40.104Z,100670.00
2023-02-01T04:53:12.997Z,100681.00
2023-02-01T04:55:45.968Z,100675.00
2023-02-01T04:58:19.420Z,100687.00
2023-02-01T05:00:52.784Z,100683.00
2023-02-01T05:03:25.801Z,100682.00
2023-02-01T05:05:58.519Z,100676.00
2023-02-01T05:08:31.670Z,100675.00
2023-02-01T05:11:05.658Z,100685.00
2023-02-01T05:13:54.121Z,100677.00
2023-02-01T05:16:26.955Z,100683.00
2023-02-01T05:18:59.911Z,100692.00
2023-02-01T05:21:32.736Z,100692.00
2023-02-01T05:24:16.255Z,100682.00
2023-02-01T05:26:53.700Z,100686.00
2023-02-01T05:29:26.658Z,100697.00
2023-02-01T05:32:05.271Z,100692.00
2023-02-01T05:34:33.497Z,100695.00
2023-02-01T05:37:09.336Z,100699.00
2023-02-01T05:39:42.131Z,100702.00
2023-02-01T05:42:14.994Z,100703.00
2023-02-01T05:44:48.148Z,100695.00
2023-02-01T05:47:21.121Z,100702.00
2023-02-01T05:49:53.896Z,100706.00
2023-02-01T05:52:26.690Z,100698.00
2023-02-01T05:54:59.606Z,100706.00
2023-02-01T05:57:32.864Z,100706.00
2023-02-01T06:00:06.109Z,100710.00
2023-02-01T06:02:39.139Z,100719.00
2023-02-01T06:05:15.103Z,100720.00
2023-02-01T06:07:51.717Z,100730.00
2023-02-01T06:10:24.841Z,100714.00
2023-02-01T06:12:57.768Z,100719.00
2023-02-01T06:15:30.524Z,100721.00
2023-02-01T06:18:03.466Z,100724.00
2023-02-01T06:20:36.348Z,100726.00
2023-02-01T06:23:09.482Z,100728.00
2023-02-01T06:25:42.330Z,100731.00
2023-02-01T06:28:15.307Z,100729.00
2023-02-01T06:30:49.117Z,100737.00
2023-02-01T06:33:21.957Z,100742.00
2023-02-01T06:35:56.177Z,100736.00
2023-02-01T06:38:29.283Z,100738.00
2023-02-01T06:41:03.158Z,100748.00
2023-02-01T06:43:36.886Z,100752.00
2023-02-01T06:46:12.365Z,100757.00
2023-02-01T06:48:45.529Z,100760.00
2023-02-01T06:51:26.355Z,100765.00
2023-02-01T06:53:59.387Z,100768.00
2023-02-01T06:56:33.721Z,100774.00
2023-02-01T06:59:10.268Z,100781.00
2023-02-01T07:01:43.666Z,100801.00
2023-02-01T07:04:17.370Z,100787.00
2023-02-01T07:06:50.208Z,100791.00
2023-02-01T07:09:23.154Z,100792.00
2023-02-01T07:11:56.119Z,100798.00
2023-02-01T07:14:28.849Z,100804.00
2023-02-01T07:17:06.117Z,100808.00
2023-02-01T07:19:38.942Z,100809.00
2023-02-01T07:22:11.753Z,100809.00
2023-02-01T07:24:44.532Z,100820.00
2023-02-01T07:27:17.317Z,100820.00
2023-02-01T07:29:50.451Z,100825.00
2023-02-01T07:32:23.378Z,100833.00
2023-02-01T07:34:58.629Z,100844.00
2023-02-01T07:37:35.727Z,100852.00
2023-02-01T07:40:13.245Z,100853.00
2023-02-01T07:42:46.057Z,100859.00
2023-02-01T07:45:21.395Z,100853.00
2023-02-01T07:47:52.848Z,100861.00
2023-02-01T07:50:25.769Z,100871.00
2023-02-01T07:52:58.827Z,100877.00
2023-02-01T07:55:32.173Z,100870.00
2023-02-01T07:58:05.111Z,100873.00
2023-02-01T08:00:55.926Z,100882.00
2023-02-01T08:03:29.142Z,100884.00
2023-02-01T08:06:02.078Z,100887.00
2023-02-01T08:08:34.997Z,100894.00
2023-02-01T08:11:08.812Z,100898.00
2023-02-01T08:13:41.698Z,100904.00
2023-02-01T08:16:15.623Z,100900.00
2023-02-01T08:18:49.175Z,100907.00
2023-02-01T08:21:25.103Z,100904.00
2023-02-01T08:23:59.127Z,100911.00
2023-02-01T08:26:32.032Z,100916.00
2023-02-01T08:29:06.334Z,100920.00
2023-02-01T08:31:39.069Z,100916.00
2023-02-01T08:34:12.478Z,100919.00
2023-02-01T08:36:45.679Z,100926.00
2023-02-01T08:39:20.289Z,100936.00
2023-02-01T08:41:54.616Z,100935.00
2023-02-01T08:44:27.491Z,100942.00
2023-02-01T08:47:00.532Z,100938.00
2023-02-01T08:49:33.495Z,100935.00
2023-02-01T08:52:10.685Z,100935.00
2023-02-01T08:54:40.540Z,100942.00
2023-02-01T08:57:13.405Z,100947.00
2023-02-01T08:59:47.179Z,100940.00
2023-02-01T09:02:21.147Z,100953.00
2023-02-01T09:04:55.154Z,100960.00
2023-02-01T09:07:28.009Z,100960.00
2023-02-01T09:10:02.103Z,100963.00
2023-02-01T09:12:35.796Z,100957.00
2023-02-01T09:15:10.027Z,100956.00
2023-02-01T09:17:44.263Z,100959.00
2023-02-01T09:20:18.248Z,100957.00
2023-02-01T09:22:50.972Z,100957.00
2023-02-01T09:25:24.092Z,100962.00
2023-02-01T09:27:57.300Z,100958.00
2023-02-01T09:30:31.331Z,100952.00
2023-02-01T09:33:04.487Z,100952.00
2023-02-01T09:35:37.277Z,100963.00
2023-02-01T09:38:10.484Z,100951.00
2023-02-01T09:40:45.248Z,100942.00
2023-02-01T09:43:36.732Z,100953.00
2023-02-01T09:46:11.668Z,100966.00
2023-02-01T09:48:46.327Z,100958.00
2023-02-01T09:51:27.577Z,100954.00
2023-02-01T09:54:30.862Z,100960.00
2023-02-01T09:57:06.017Z,100966.00
2023-02-01T09:59:49.691Z,100970.00
2023-02-01T10:02:30.633Z,100974.00
2023-02-01T10:05:05.151Z,100980.00
2023-02-01T10:07:51.249Z,100972.00
2023-02-01T10:10:41.273Z,100976.00
2023-02-01T10:13:39.953Z,100972.00
2023-02-01T10:16:20.539Z,100970.00
2023-02-01T10:19:02.762Z,100975.00
2023-02-01T10:21:59.970Z,100965.00
2023-02-01T10:24:40.619Z,100972.00
2023-02-01T10:27:18.161Z,100978.00
2023-02-01T10:29:55.941Z,100980.00
2023-02-01T10:32:30.567Z,100980.00
2023-02-01T10:35:08.493Z,100981.00
2023-02-01T10:37:41.893Z,100971.00
2023-02-01T10:40:30.988Z,100970.00
2023-02-01T10:43:07.374Z,100975.00
2023-02-01T10:45:42.263Z,100970.00
2023-02-01T10:48:19.428Z,100964.00
2023-02-01T10:51:06.371Z,100967.00
2023-02-01T10:53:58.933Z,100964.00
2023-02-01T10:56:34.186Z,100974.00
2023-02-01T10:59:14.975Z,100966.00
2023-02-01T11:01:49.546Z,100956.00
2023-02-01T11:04:26.752Z,100961.00
2023-02-01T11:07:19.967Z,100965.00
2023-02-01T11:10:01.850Z,100954.00
2023-02-01T11:12:42.238Z,100969.00
2023-02-01T11:15:26.659Z,100967.00
2023-02-01T11:17:59.957Z,100958.00
2023-02-01T11:20:40.859Z,100958.00
2023-02-01T11:23:18.381Z,100961.00
2023-02-01T11:25:59.640Z,100965.00
2023-02-01T11:28:37.616Z,100949.00
2023-02-01T11:31:12.691Z,100956.00
2023-02-01T11:33:47.427Z,100964.00
2023-02-01T11:36:22.098Z,100958.00
2023-02-01T11:39:21.234Z,100958.00
2023-02-01T11:42:22.866Z,100945.00
2023-02-01T11:44:57.087Z,100956.00
2023-02-01T11:47:38.739Z,100945.00
2023-02-01T11:50:24.173Z,100932.00
2023-02-01T11:53:05.092Z,100940.00
2023-02-01T11:55:48.854Z,100941.00
2023-02-01T11:58:33.158Z,100949.00
2023-02-01T12:01:14.129Z,100945.00
2023-02-01T12:04:05.276Z,100938.00
2023-02-01T12:06:52.583Z,100937.00
2023-02-01T12:09:30.408Z,100934.00
2023-02-01T12:12:30.631Z,100936.00
2023-02-01T12:15:05.610Z,100936.00
2023-02-01T12:17:43.329Z,100950.00
2023-02-01T12:20:37.633Z,100959.00
2023-02-01T12:23:21.331Z,100960.00
2023-02-01T12:26:18.589Z,100963.00
2023-02-01T12:29:02.617Z,100966.00
2023-02-01T12:31:55.723Z,100962.00
2023-02-01T12:34:34.221Z,100954.00
2023-02-01T12:37:25.667Z,100954.00
2023-02-01T12:40:00.922Z,100951.00
2023-02-01T12:42:40.304Z,100941.00
2023-02-01T12:45:43.859Z,100934.00
2023-02-01T12:48:33.526Z,100946.00
2023-02-01T12:51:11.352Z,100947.00
2023-02-01T12:54:02.806Z,100939.00
2023-02-01T12:56:43.688Z,100952.00
2023-02-01T12:59:40.279Z,100938.00
2023-02-01T13:02:38.550Z,100946.00
2023-02-01T13:05:25.430Z,100945.00
2023-02-01T13:08:06.363Z,100943.00
2023-02-01T13:10:41.134Z,100942.00
2023-02-01T13:13:42.798Z,100940.00
2023-02-01T13:16:20.461Z,100940.00
2023-02-01T13:18:54.371Z,100943.00
2023-02-01T13:21:34.716Z,100944.00
2023-02-01T13:24:07.873Z,100938.00
2023-02-01T13:26:40.823Z,100941.00
2023-02-01T13:29:15.318Z,100943.00
2023-02-01T13:31:59.239Z,100948.00
2023-02-01T13:34:52.169Z,100946.00
2023-02-01T13:37:36.592Z,100956.00
2023-02-01T13:40:27.677Z,100952.00
2023-02-01T13:43:02.324Z,100950.00
2023-02-01T13:45:37.664Z,100958.00
2023-02-01T13:48:12.762Z,100951.00
2023-02-01T13:50:46.735Z,100954.00
2023-02-01T13:53:21.569Z,100959.00
2023-02-01T13:56:09.093Z,100953.00
2023-02-01T13:58:44.546Z,100946.00
2023-02-01T14:01:29.753Z,100945.00
2023-02-01T14:04:07.342Z,100951.00
2023-02-01T14:06:49.917Z,100943.00
2023-02-01T14:09:30.451Z,100944.00
2023-02-01T14:12:04.904Z,100933.00
2023-02-01T14:14:44.131Z,100934.00
2023-02-01T14:17:28.125Z,100925.00
2023-02-01T14:20:03.008Z,100920.00
2023-02-01T14:22:40.263Z,100917.00
2023-02-01T14:25:15.236Z,100918.00
2023-02-01T14:27:47.980Z,100912.00
2023-02-01T14:30:22.158Z,100909.00
2023-02-01T14:32:55.253Z,100906.00
2023-02-01T14:35:29.814Z,100897.00
2023-02-01T14:38:07.004Z,100898.00
2023-02-01T14:40:40.215Z,100896.00
2023-02-01T14:43:26.814Z,100897.00
2023-02-01T14:45:49.832Z,100897.00
2023-02-01T14:48:25.070Z,100897.00
2023-02-01T14:50:58.260Z,100879.00
2023-02-01T14:53:35.876Z,100893.00
2023-02-01T14:56:14.652Z,100882.00
2023-02-01T14:59:07.912Z,100882.00
2023-02-01T15:01:42.352Z,100855.00
2023-02-01T15:04:23.983Z,100863.00
2023-02-01T15:07:04.724Z,100862.00
2023-02-01T15:09:39.700Z,100863.00
2023-02-01T15:12:24.107Z,100864.00
2023-02-01T15:15:11.668Z,100869.00
2023-02-01T15:17:45.138Z,100882.00
2023-02-01T15:20:29.489Z,100875.00
2023-02-01T15:23:05.091Z,100870.00
2023-02-01T15:25:42.737Z,100866.00
2023-02-01T15:28:17.419Z,100867.00
2023-02-01T15:31:08.207Z,100876.00
2023-02-01T15:33:41.200Z,100869.00
2023-02-01T15:36:16.051Z,100862.00
2023-02-01T15:38:49.444Z,100871.00
2023-02-01T15:41:24.838Z,100871.00
2023-02-01T15:44:00.425Z,100877.00
2023-02-01T15:46:45.433Z,100871.00
2023-02-01T15:49:32.299Z,100877.00
2023-02-01T15:52:07.383Z,100875.00
2023-02-01T15:54:55.081Z,100872.00
2023-02-01T15:57:34.190Z,100874.00
2023-02-01T16:00:12.134Z,100881.00
2023-02-01T16:02:50.523Z,100879.00
2023-02-01T16:05:44.381Z,100881.00
2023-02-01T16:08:18.961Z,100880.00
2023-02-01T16:10:53.328Z,100867.00
2023-02-01T16:13:26.444Z,100868.00
2023-02-01T16:15:59.305Z,100868.00
2023-02-01T16:18:32.086Z,100866.00
2023-02-01T16:21:09.325Z,100863.00
2023-02-01T16:23:46.653Z,100873.00
2023-02-01T16:26:19.588Z,100878.00
2023-02-01T16:28:52.760Z,100881.00
2023-02-01T16:31:27.788Z,100885.00
2023-02-01T16:34:01.225Z,100883.00
2023-02-01T16:36:34.272Z,100892.00
2023-02-01T16:39:07.033Z,100881.00
2023-02-01T16:41:39.765Z,100888.00
2023-02-01T16:44:12.500Z,100891.00
2023-02-01T16:46:50.102Z,100894.00
2023-02-01T16:49:27.677Z,100887.00
2023-02-01T16:52:02.001Z,100891.00
2023-02-01T16:54:34.855Z,100897.00
2023-02-01T16:57:07.699Z,100890.00
2023-02-01T16:59:40.717Z,100891.00
2023-02-01T17:02:15.943Z,100886.00
2023-02-01T17:04:49.099Z,100890.00
2023-02-01T17:07:23.304Z,100893.00
2023-02-01T17:09:56.291Z,100884.00
2023-02-01T17:12:31.239Z,100885.00
2023-02-01T17:15:04.378Z,100886.00
2023-02-01T17:17:39.552Z,100897.00
2023-02-01T17:20:13.766Z,100887.00
2023-02-01T17:22:46.623Z,100894.00
2023-02-01T17:25:24.207Z,100897.00
2023-02-01T17:28:01.563Z,100894.00
2023-02-01T17:30:34.093Z,100890.00
2023-02-01T17:33:20.753Z,100906.00
2023-02-01T17:35:41.065Z,100900.00
2023-02-01T17:38:17.785Z,100892.00
2023-02-01T17:40:50.694Z,100888.00
2023-02-01T17:43:28.491Z,100891.00
2023-02-01T17:46:09.200Z,100880.00
2023-02-01T17:48:42.318Z,100887.00
2023-02-01T17:51:20.024Z,100893.00
2023-02-01T17:53:53.167Z,100894.00
2023-02-01T17:56:28.165Z,100895.00
2023-02-01T17:59:01.028Z,100898.00
2023-02-01T18:01:34.409Z,100889.00
2023-02-01T18:04:07.285Z,100895.00
2023-02-01T18:06:40.092Z,100892.00
2023-02-01T18:09:13.449Z,100894.00
2023-02-01T18:11:46.126Z,100897.00
2023-02-01T18:14:19.036Z,100902.00
2023-02-01T18:16:52.014Z,100907.00
2023-02-01T18:19:24.900Z,100902.00
2023-02-01T18:21:58.924Z,100912.00
2023-02-01T18:24:32.699Z,100917.00
2023-02-01T18:27:05.519Z,100923.00
2023-02-01T18:29:38.165Z,100927.00
2023-02-01T18:32:12.456Z,100935.00
2023-02-01T18:34:45.168Z,100940.00
2023-02-01T18:37:18.050Z,100937.00
2023-02-01T18:39:50.798Z,100936.00
2023-02-01T18:42:23.707Z,100941.00
2023-02-01T18:44:56.393Z,100942.00
2023-02-01T18:47:29.168Z,100952.00
2023-02-01T18:50:02.111Z,100956.00
2023-02-01T18:52:35.137Z,100945.00
2023-02-01T18:55:08.381Z,100946.00
2023-02-01T18:57:41.336Z,100947.00
2023-02-01T19:00:15.134Z,100943.00
2023-02-01T19:02:48.008Z,100943.00
2023-02-01T19:05:21.762Z,100937.00
2023-02-01T19:07:55.138Z,100941.00
2023-02-01T19:10:29.792Z,100949.00
2023-02-01T19:13:02.635Z,100945.00
2023-02-01T19:15:37.314Z,100949.00
2023-02-01T19:18:11.129Z,100954.00
2023-02-01T19:20:45.719Z,100963.00
2023-02-01T19:23:18.993Z,100965.00
2023-02-01T19:25:53.808Z,100961.00
2023-02-01T19:28:26.633Z,100966.00
2023-02-01T19:31:10.428Z,100974.00
2023-02-01T19:33:43.276Z,100980.00
2023-02-01T19:36:16.186Z,100973.00
2023-02-01T19:38:49.075Z,100987.00
2023-02-01T19:41:21.832Z,100993.00
2023-02-01T19:43:54.747Z,100993.00
2023-02-01T19:46:27.593Z,100988.00
2023-02-01T19:49:00.295Z,101003.00
2023-02-01T19:51:33.340Z,100999.00
2023-02-01T19:54:06.250Z,101001.00
2023-02-01T19:56:39.477Z,101003.00
2023-02-01T19:59:12.466Z,100995.00
2023-02-01T20:01:45.670Z,101002.00
2023-02-01T20:04:20.492Z,100990.00
2023-02-01T20:06:55.122Z,100988.00
2023-02-01T20:09:34.855Z,100993.00
2023-02-01T20:12:12.337Z,100989.00
2023-02-01T20:14:45.394Z,100985.00
2023-02-01T20:17:19.715Z,100981.00
2023-02-01T20:19:52.678Z,100985.00
2023-02-01T20:22:25.757Z,100988.00
2023-02-01T20:24:59.878Z,100979.00
2023-02-01T20:27:33.534Z,100980.00
2023-02-01T20:30:06.347Z,100983.00
2023-02-01T20:32:39.382Z,100987.00
2023-02-01T20:35:13.144Z,100982.00
2023-02-01T20:37:46.817Z,100985.00
2023-02-01T20:40:28.815Z,100981.00
2023-02-01T20:43:01.627Z,100985.00
2023-02-01T20:45:34.413Z,100979.00
2023-02-01T20:48:07.763Z,100986.00
2023-02-01T20:50:41.507Z,100982.00
2023-02-01T20:53:25.285Z,100978.00
2023-02-01T20:55:48.380Z,100977.00
2023-02-01T20:58:21.233Z,100982.00
2023-02-01T21:00:54.376Z,100983.00
2023-02-01T21:03:27.219Z,100984.00
2023-02-01T21:06:02.142Z,100985.00
2023-02-01T21:08:35.671Z,100977.00
2023-02-01T21:11:10.438Z,100982.00
2023-02-01T21:13:48.870Z,100969.00
2023-02-01T21:16:25.877Z,100968.00
2023-02-01T21:18:58.787Z,100973.00
2023-02-01T21:21:31.601Z,100981.00
2023-02-01T21:24:05.354Z,100985.00
2023-02-01T21:26:56.963Z,100990.00
2023-02-01T21:29:30.225Z,100998.00
2023-02-01T21:32:03.858Z,101001.00
2023-02-01T21:34:48.092Z,100999.00
2023-02-01T21:37:20.946Z,101000.00
2023-02-01T21:39:53.802Z,101008.00
2023-02-01T21:42:28.093Z,101010.00
2023-02-01T21:45:02.156Z,101009.00
2023-02-01T21:47:35.136Z,101021.00
2023-02-01T21:50:09.949Z,101010.00
2023-02-01T21:52:43.055Z,101023.00
2023-02-01T21:55:16.719Z,101014.00
2023-02-01T21:57:49.500Z,101016.00
2023-02-01T22:00:23.099Z,101008.00
2023-02-01T22:02:56.003Z,101014.00
2023-02-01T22:05:29.254Z,101009.00
2023-02-01T22:08:01.967Z,101006.00
2023-02-01T22:10:35.029Z,101005.00
2023-02-01T22:13:07.988Z,101007.00
2023-02-01T22:15:40.777Z,101007.00
2023-02-01T22:18:13.586Z,101014.00
2023-02-01T22:20:46.214Z,101011.00
2023-02-01T22:23:19.912Z,101019.00
2023-02-01T22:25:52.732Z,101010.00
2023-02-01T22:28:32.644Z,101014.00
2023-02-01T22:31:01.898Z,101014.00
2023-02-01T22:33:35.426Z,101016.00
2023-02-01T22:36:10.167Z,101008.00
2023-02-01T22:38:43.331Z,101009.00
2023-02-01T22:41:16.100Z,101005.00
2023-02-01T22:43:49.622Z,101006.00
2023-02-01T22:46:24.676Z,101007.00
2023-02-01T22:48:57.638Z,100996.00
2023-02-01T22:51:36.516Z,101000.00
2023-02-01T22:54:09.333Z,100994.00
2023-02-01T22:56:42.201Z,100996.00
2023-02-01T22:59:18.268Z,100993.00
2023-02-01T23:01:51.132Z,100987.00
2023-02-01T23:04:23.868Z,100987.00
2023-02-01T23:06:56.908Z,100986.00
2023-02-01T23:09:30.435Z,100989.00
2023-02-01T23:12:03.686Z,100981.00
2023-02-01T23:14:37.616Z,100980.00
2023-02-01T23:17:10.484Z,100983.00
2023-02-01T23:19:43.260Z,100980.00
2023-02-01T23:22:16.036Z,100985.00
2023-02-01T23:24:48.736Z,100981.00
2023-02-01T23:27:21.582Z,100980.00
2023-02-01T23:29:54.818Z,100992.00
2023-02-01T23:32:27.904Z,100982.00
2023-02-01T23:35:00.655Z,100990.00
2023-02-01T23:37:33.414Z,100985.00
2023-02-01T23:40:06.483Z,100989.00
2023-02-01T23:42:39.626Z,100997.00
2023-02-01T23:45:12.911Z,100984.00
2023-02-01T23:47:45.666Z,100987.00
2023-02-01T23:50:18.563Z,100995.00
2023-02-01T23:52:53.774Z,100980.00
2023-02-01T23:55:26.733Z,100984.00
2023-02-01T23:57:59.512Z,100988.00
